Time,TemperatureF,DewpointF,PressureIn,WindDirection,WindDirectionDegrees,WindSpeedMPH,WindSpeedGustMPH,Humidity,HourlyPrecipIn,Conditions,Clouds,dailyrainin,SoftwareType,DateUTC
2013-04-30 00:04:00,46.3,38.0,30.14,East,101,6.0,13.0,74,0.00,,,0.00,weatherlink.com 1.10,2013-04-30 07:04:00,
2013-04-30 00:19:00,45.9,38.0,30.14,South,185,9.0,14.0,75,0.00,,,0.00,weatherlink.com 1.10,2013-04-30 07:19:00,
2013-04-30 00:34:00,45.6,38.0,30.14,SSE,156,7.0,11.0,76,0.00,,,0.00,weatherlink.com 1.10,2013-04-30 07:34:00,
2013-04-30 00:49:00,45.4,38.0,30.15,NNE,23,1.0,8.0,75,0.00,,,0.00,weatherlink.com 1.10,2013-04-30 07:49:00,
2013-04-30 01:04:00,45.2,38.0,30.15,East,96,2.0,13.0,75,0.00,,,0.00,weatherlink.com 1.10,2013-04-30 08:04:00,
2013-04-30 01:19:00,44.9,38.0,30.15,SSW,204,3.0,6.0,76,0.00,,,0.00,weatherlink.com 1.10,2013-04-30 08:19:00,
2013-04-30 01:34:00,44.9,38.0,30.15,SSE,150,2.0,9.0,76,0.00,,,0.00,weatherlink.com 1.10,2013-04-30 08:34:00,
2013-04-30 01:49:00,44.5,38.0,30.16,SW,232,9.0,9.0,77,0.00,,,0.00,weatherlink.com 1.10,2013-04-30 08:49:00,
2013-04-30 02:04:00,43.9,37.0,30.16,SE,145,7.0,10.0,77,0.00,,,0.00,weatherlink.com 1.10,2013-04-30 09:04:00,
2013-04-30 02:19:00,43.7,38.0,30.16,WSW,242,2.0,4.0,80,0.00,,,0.00,weatherlink.com 1.10,2013-04-30 09:19:00,
2013-04-30 02:34:00,41.9,37.0,30.16,WSW,242,0.0,4.0,82,0.00,,,0.00,weatherlink.com 1.10,2013-04-30 09:34:00,
2013-04-30 02:49:00,41.1,36.0,30.16,West,269,1.0,3.0,83,0.00,,,0.00,weatherlink.com 1.10,2013-04-30 09:49:00,
2013-04-30 03:04:00,40.8,36.0,30.16,West,264,1.0,2.0,84,0.00,,,0.00,weatherlink.com 1.10,2013-04-30 10:04:00,
2013-04-30 03:19:00,39.7,36.0,30.17,West,260,2.0,3.0,87,0.00,,,0.00,weatherlink.com 1.10,2013-04-30 10:19:00,
2013-04-30 03:34:00,39.1,36.0,30.17,West,262,1.0,2.0,88,0.00,,,0.00,weatherlink.com 1.10,2013-04-30 10:34:00,
2013-04-30 03:49:00,38.7,36.0,30.18,West,274,1.0,1.0,89,0.00,,,0.00,weatherlink.com 1.10,2013-04-30 10:49:00,
2013-04-30 04:04:00,38.4,36.0,30.18,West,267,2.0,4.0,89,0.00,,,0.00,weatherlink.com 1.10,2013-04-30 11:04:00,
2013-04-30 04:19:00,37.8,36.0,30.18,West,260,1.0,3.0,91,0.00,,,0.00,weatherlink.com 1.10,2013-04-30 11:19:00,
2013-04-30 04:34:00,37.9,36.0,30.18,West,276,1.0,1.0,92,0.00,,,0.00,weatherlink.com 1.10,2013-04-30 11:34:00,
2013-04-30 04:49:00,37.2,35.0,30.18,West,271,2.0,2.0,92,0.00,,,0.00,weatherlink.com 1.10,2013-04-30 11:49:00,
2013-04-30 05:04:00,37.0,35.0,30.18,West,259,1.0,2.0,93,0.00,,,0.00,weatherlink.com 1.10,2013-04-30 12:04:00,
2013-04-30 05:19:00,36.7,35.0,30.19,West,274,1.0,2.0,93,0.00,,,0.00,weatherlink.com 1.10,2013-04-30 12:19:00,
2013-04-30 05:34:00,36.6,35.0,30.19,WSW,256,2.0,3.0,94,0.00,,,0.00,weatherlink.com 1.10,2013-04-30 12:34:00,
2013-04-30 05:50:00,36.5,35.0,30.20,West,276,0.0,2.0,95,0.00,,,0.00,weatherlink.com 1.10,2013-04-30 12:50:00,
2013-04-30 06:05:00,36.7,35.0,30.20,WSW,255,0.0,3.0,94,0.00,,,0.00,weatherlink.com 1.10,2013-04-30 13:05:00,
2013-04-30 06:20:00,36.1,35.0,30.21,West,274,2.0,2.0,94,0.00,,,0.00,weatherlink.com 1.10,2013-04-30 13:20:00,
2013-04-30 06:35:00,36.4,35.0,30.22,West,259,0.0,2.0,95,0.00,,,0.00,weatherlink.com 1.10,2013-04-30 13:35:00,
2013-04-30 06:50:00,37.1,36.0,30.22,West,273,0.0,0.0,95,0.00,,,0.00,weatherlink.com 1.10,2013-04-30 13:50:00,
2013-04-30 07:05:00,37.6,36.0,30.23,WNW,288,1.0,2.0,94,0.00,,,0.00,weatherlink.com 1.10,2013-04-30 14:05:00,
2013-04-30 07:20:00,37.6,36.0,30.23,West,270,0.0,1.0,94,0.00,,,0.00,weatherlink.com 1.10,2013-04-30 14:20:00,
2013-04-30 07:35:00,38.8,37.0,30.24,West,270,0.0,1.0,93,0.00,,,0.00,weatherlink.com 1.10,2013-04-30 14:35:00,
2013-04-30 07:50:00,39.5,38.0,30.25,West,270,0.0,1.0,93,0.00,,,0.00,weatherlink.com 1.10,2013-04-30 14:50:00,
2013-04-30 08:05:00,40.1,38.0,30.25,WSW,254,0.0,1.0,93,0.00,,,0.00,weatherlink.com 1.10,2013-04-30 15:05:00,
2013-04-30 08:20:00,42.0,39.0,30.25,NW,316,0.0,2.0,89,0.00,,,0.00,weatherlink.com 1.10,2013-04-30 15:20:00,
2013-04-30 08:35:00,43.3,39.0,30.26,SSW,210,0.0,2.0,85,0.00,,,0.00,weatherlink.com 1.10,2013-04-30 15:35:00,
2013-04-30 08:50:00,44.5,38.0,30.26,SSE,163,6.0,7.0,77,0.00,,,0.00,weatherlink.com 1.10,2013-04-30 15:50:00,
2013-04-30 09:05:00,44.4,38.0,30.26,SE,133,5.0,8.0,77,0.00,,,0.00,weatherlink.com 1.10,2013-04-30 16:05:00,
2013-04-30 09:20:00,43.9,38.0,30.27,SSE,158,6.0,7.0,79,0.00,,,0.00,weatherlink.com 1.10,2013-04-30 16:20:00,
2013-04-30 09:34:00,44.4,38.0,30.27,SE,131,6.0,7.0,78,0.00,,,0.00,weatherlink.com 1.10,2013-04-30 16:34:00,
2013-04-30 09:50:00,43.3,37.0,30.28,East,94,4.0,8.0,79,0.00,,,0.00,weatherlink.com 1.10,2013-04-30 16:50:00,
2013-04-30 10:05:00,44.0,38.0,30.28,ENE,57,4.0,8.0,78,0.00,,,0.00,weatherlink.com 1.10,2013-04-30 17:05:00,
2013-04-30 10:20:00,44.4,37.0,30.28,SSE,155,4.0,8.0,75,0.00,,,0.00,weatherlink.com 1.10,2013-04-30 17:20:00,
2013-04-30 10:35:00,45.3,38.0,30.28,ESE,103,2.0,6.0,76,0.00,,,0.00,weatherlink.com 1.10,2013-04-30 17:35:00,
2013-04-30 10:50:00,45.9,37.0,30.29,SSW,193,6.0,10.0,71,0.00,,,0.00,weatherlink.com 1.10,2013-04-30 17:50:00,
2013-04-30 11:05:00,46.1,36.0,30.29,SE,128,1.0,7.0,67,0.00,,,0.00,weatherlink.com 1.10,2013-04-30 18:05:00,
2013-04-30 11:20:00,47.0,36.0,30.29,SSE,158,6.0,9.0,66,0.00,,,0.00,weatherlink.com 1.10,2013-04-30 18:20:00,
2013-04-30 11:35:00,47.1,36.0,30.30,East,88,1.0,9.0,65,0.00,,,0.00,weatherlink.com 1.10,2013-04-30 18:35:00,
2013-04-30 11:50:00,46.9,36.0,30.30,SSE,165,4.0,11.0,67,0.00,,,0.00,weatherlink.com 1.10,2013-04-30 18:50:00,
2013-04-30 12:05:00,47.5,37.0,30.30,ESE,120,5.0,7.0,68,0.00,,,0.00,weatherlink.com 1.10,2013-04-30 19:05:00,
2013-04-30 12:21:00,48.0,37.0,30.31,ESE,115,0.0,11.0,66,0.00,,,0.00,weatherlink.com 1.10,2013-04-30 19:21:00,
2013-04-30 12:36:00,48.0,37.0,30.31,East,81,3.0,6.0,65,0.00,,,0.00,weatherlink.com 1.10,2013-04-30 19:36:00,
2013-04-30 12:51:00,48.5,37.0,30.31,NE,54,1.0,8.0,64,0.00,,,0.00,weatherlink.com 1.10,2013-04-30 19:51:00,
2013-04-30 13:06:00,48.9,37.0,30.31,NE,49,1.0,6.0,63,0.00,,,0.00,weatherlink.com 1.10,2013-04-30 20:06:00,
2013-04-30 13:21:00,49.4,36.0,30.31,SSE,160,6.0,11.0,60,0.00,,,0.00,weatherlink.com 1.10,2013-04-30 20:21:00,
2013-04-30 13:36:00,49.7,38.0,30.32,NE,53,5.0,10.0,64,0.00,,,0.00,weatherlink.com 1.10,2013-04-30 20:36:00,
2013-04-30 13:51:00,49.7,37.0,30.32,SSE,151,2.0,8.0,61,0.00,,,0.00,weatherlink.com 1.10,2013-04-30 20:51:00,
2013-04-30 14:06:00,49.4,36.0,30.32,NE,50,8.0,8.0,61,0.00,,,0.00,weatherlink.com 1.10,2013-04-30 21:06:00,
2013-04-30 14:21:00,49.9,36.0,30.32,SSE,164,4.0,10.0,60,0.00,,,0.00,weatherlink.com 1.10,2013-04-30 21:21:00,
2013-04-30 14:36:00,49.9,35.0,30.33,SSE,149,6.0,8.0,58,0.00,,,0.00,weatherlink.com 1.10,2013-04-30 21:36:00,
2013-04-30 14:51:00,50.0,36.0,30.33,ENE,58,2.0,8.0,58,0.00,,,0.00,weatherlink.com 1.10,2013-04-30 21:51:00,
2013-04-30 15:06:00,49.7,35.0,30.34,NE,53,5.0,8.0,58,0.00,,,0.00,weatherlink.com 1.10,2013-04-30 22:06:00,
2013-04-30 15:21:00,49.5,37.0,30.34,NE,51,5.0,7.0,62,0.00,,,0.00,weatherlink.com 1.10,2013-04-30 22:21:00,
2013-04-30 15:36:00,49.5,35.0,30.34,NE,53,3.0,6.0,58,0.00,,,0.00,weatherlink.com 1.10,2013-04-30 22:36:00,
2013-04-30 15:51:00,49.6,34.0,30.34,NE,53,5.0,6.0,56,0.00,,,0.00,weatherlink.com 1.10,2013-04-30 22:51:00,
2013-04-30 16:06:00,49.9,36.0,30.34,NE,40,1.0,5.0,60,0.00,,,0.00,weatherlink.com 1.10,2013-04-30 23:06:00,
2013-04-30 16:21:00,50.3,36.0,30.34,ENE,58,4.0,5.0,59,0.00,,,0.00,weatherlink.com 1.10,2013-04-30 23:21:00,
2013-04-30 16:36:00,50.4,35.0,30.35,NE,49,2.0,5.0,57,0.00,,,0.00,weatherlink.com 1.10,2013-04-30 23:36:00,
2013-04-30 16:51:00,50.5,35.0,30.35,ENE,57,0.0,3.0,56,0.00,,,0.00,weatherlink.com 1.10,2013-04-30 23:51:00,
2013-04-30 17:06:00,50.7,34.0,30.35,NE,54,2.0,3.0,54,0.00,,,0.00,weatherlink.com 1.10,2013-05-01 00:06:00,
2013-04-30 17:21:00,50.8,35.0,30.35,ENE,58,4.0,4.0,55,0.00,,,0.00,weatherlink.com 1.10,2013-05-01 00:21:00,
2013-04-30 17:36:00,50.7,34.0,30.35,NE,49,2.0,4.0,54,0.00,,,0.00,weatherlink.com 1.10,2013-05-01 00:36:00,
2013-04-30 17:50:00,50.7,34.0,30.36,ENE,65,4.0,4.0,54,0.00,,,0.00,weatherlink.com 1.10,2013-05-01 00:50:00,
2013-04-30 18:06:00,50.6,34.0,30.36,NE,54,2.0,4.0,53,0.00,,,0.00,weatherlink.com 1.10,2013-05-01 01:06:00,
2013-04-30 18:21:00,50.5,34.0,30.36,NE,56,2.0,4.0,53,0.00,,,0.00,weatherlink.com 1.10,2013-05-01 01:21:00,
2013-04-30 18:36:00,50.6,33.0,30.36,NE,54,2.0,2.0,52,0.00,,,0.00,weatherlink.com 1.10,2013-05-01 01:36:00,
2013-04-30 18:51:00,50.6,33.0,30.36,ENE,62,2.0,3.0,52,0.00,,,0.00,weatherlink.com 1.10,2013-05-01 01:51:00,
2013-04-30 19:06:00,50.5,34.0,30.36,ENE,71,0.0,2.0,53,0.00,,,0.00,weatherlink.com 1.10,2013-05-01 02:06:00,
2013-04-30 19:21:00,50.5,34.0,30.37,ESE,120,1.0,2.0,53,0.00,,,0.00,weatherlink.com 1.10,2013-05-01 02:21:00,
2013-04-30 19:36:00,50.4,33.0,30.37,East,92,1.0,2.0,52,0.00,,,0.00,weatherlink.com 1.10,2013-05-01 02:36:00,
2013-04-30 19:51:00,50.2,34.0,30.37,ENE,65,0.0,2.0,55,0.00,,,0.00,weatherlink.com 1.10,2013-05-01 02:51:00,
2013-04-30 20:05:00,49.5,35.0,30.37,SW,231,0.0,1.0,57,0.00,,,0.00,weatherlink.com 1.10,2013-05-01 03:05:00,
2013-04-30 20:21:00,48.8,36.0,30.37,WSW,248,0.0,1.0,62,0.00,,,0.00,weatherlink.com 1.10,2013-05-01 03:21:00,
2013-04-30 20:36:00,48.2,38.0,30.37,West,259,0.0,1.0,68,0.00,,,0.00,weatherlink.com 1.10,2013-05-01 03:36:00,
2013-04-30 20:51:00,47.5,39.0,30.38,West,262,0.0,1.0,71,0.00,,,0.00,weatherlink.com 1.10,2013-05-01 03:51:00,
2013-04-30 21:06:00,46.5,37.0,30.38,West,266,1.0,2.0,69,0.00,,,0.00,weatherlink.com 1.10,2013-05-01 04:06:00,
2013-04-30 21:21:00,45.9,37.0,30.39,West,269,1.0,1.0,71,0.00,,,0.00,weatherlink.com 1.10,2013-05-01 04:21:00,
2013-04-30 21:36:00,45.5,37.0,30.39,West,278,1.0,2.0,71,0.00,,,0.00,weatherlink.com 1.10,2013-05-01 04:36:00,
2013-04-30 21:51:00,44.9,37.0,30.40,West,276,1.0,2.0,74,0.00,,,0.00,weatherlink.com 1.10,2013-05-01 04:51:00,
2013-04-30 22:05:00,44.1,37.0,30.41,West,262,1.0,2.0,75,0.00,,,0.00,weatherlink.com 1.10,2013-05-01 05:05:00,
2013-04-30 22:21:00,43.3,37.0,30.41,West,273,2.0,2.0,77,0.00,,,0.00,weatherlink.com 1.10,2013-05-01 05:21:00,
2013-04-30 22:36:00,42.3,37.0,30.41,West,276,2.0,2.0,80,0.00,,,0.00,weatherlink.com 1.10,2013-05-01 05:36:00,
2013-04-30 22:51:00,41.6,36.0,30.41,West,260,2.0,2.0,80,0.00,,,0.00,weatherlink.com 1.10,2013-05-01 05:51:00,
2013-04-30 23:07:00,40.6,36.0,30.42,West,267,0.0,2.0,83,0.00,,,0.00,weatherlink.com 1.10,2013-05-01 06:07:00,
2013-04-30 23:22:00,40.3,36.0,30.42,West,271,1.0,2.0,84,0.00,,,0.00,weatherlink.com 1.10,2013-05-01 06:22:00,
2013-04-30 23:37:00,39.9,36.0,30.42,WSW,243,0.0,1.0,86,0.00,,,0.00,weatherlink.com 1.10,2013-05-01 06:37:00,
2013-04-30 23:52:00,39.3,36.0,30.43,West,264,2.0,2.0,87,0.00,,,0.00,weatherlink.com 1.10,2013-05-01 06:52:00,